CheckWX is a tool to help pilots better visualize weather data.  It is not intended as a substitute for an official pre-flight weather briefing.

16:13:45 UTC

KMZG METAR
Mustang Island A85a
Mustang Island A85a, Texas, USA
Current

19 mins ago

KMZG 261555Z AUTO 22011G18KT 10SM CLR 27/23 A3006 RMK A01
Observed
May-26 @ 15:55 UTC
Wind
  • 220° at 11 KTS
  • Gusting to 18 KTS
Visibility
10 SM
Flight Rules
VFR
Cloud Levels
  • Clear skies
Temperature
27°C / 81°F
Dewpoint
23°C / 73°F
Heat Index
30°C / 86°F
Humidity
79%
Altimeter
30.06" Hg
Pressure
1017.92 hPa
Previous

39 mins ago

KMZG 261535Z AUTO 23008G16KT 10SM CLR 27/23 A3006 RMK A01
Observed
May-26 @ 15:35 UTC
Wind
  • 230° at 8 KTS
  • Gusting to 16 KTS
Visibility
10 SM
Flight Rules
VFR
Cloud Levels
  • Clear skies
Temperature
27°C / 81°F
Dewpoint
23°C / 73°F
Heat Index
30°C / 86°F
Humidity
79%
Altimeter
30.06" Hg
Pressure
1017.92 hPa
Previous

59 mins ago

KMZG 261515Z AUTO 21014KT 10SM CLR 27/23 A3005 RMK A01
Observed
May-26 @ 15:15 UTC
Wind
  • 210° at 14 KTS
Visibility
10 SM
Flight Rules
VFR
Cloud Levels
  • Clear skies
Temperature
27°C / 81°F
Dewpoint
23°C / 73°F
Heat Index
30°C / 86°F
Humidity
79%
Altimeter
30.05" Hg
Pressure
1017.62 hPa